Time;durP1;ratioP1;P1;durP2;ratioP2;P2;SDS_P1;SDS_P2;PMS_P1;PMS_P2;Temp;Humidity;BMP_temperature;BMP_pressure;BME280_temperature;BME280_humidity;BME280_pressure;Samples;Min_cycle;Max_cycle;Signal;HPM_P1;HPM_P2
2023/12/01 00:00:28;;;;;;;38.65;21.10;;;;;;;1.85;100.00;98931.47;5063706;28;20044;-67
2023/12/01 00:02:56;;;;;;;36.80;20.75;;;;;;;1.91;100.00;98936.47;5071422;28;20056;-68
2023/12/01 00:05:25;;;;;;;37.38;20.40;;;;;;;1.93;100.00;98942.50;5064522;28;20400;-68
2023/12/01 00:07:52;;;;;;;37.10;20.98;;;;;;;1.91;100.00;98944.28;5064300;28;20051;-68
2023/12/01 00:10:21;;;;;;;32.95;19.15;;;;;;;1.90;100.00;98953.88;5063607;28;20419;-68
2023/12/01 00:12:49;;;;;;;33.50;19.08;;;;;;;1.89;100.00;98953.97;5056582;28;20053;-68
2023/12/01 00:15:19;;;;;;;32.85;17.58;;;;;;;1.90;100.00;98961.72;5064280;28;20104;-67
2023/12/01 00:17:47;;;;;;;34.30;18.70;;;;;;;1.86;100.00;98954.06;5065424;28;20048;-68
2023/12/01 00:20:15;;;;;;;30.35;16.98;;;;;;;1.93;100.00;98956.41;5063987;28;20469;-68
2023/12/01 00:22:43;;;;;;;32.15;18.05;;;;;;;1.88;100.00;98945.28;5070506;28;20493;-67
2023/12/01 00:25:11;;;;;;;29.38;17.13;;;;;;;1.86;100.00;98954.91;5061117;28;20054;-67
2023/12/01 00:27:41;;;;;;;27.75;15.70;;;;;;;1.89;100.00;98943.53;5048013;28;20098;-69
2023/12/01 00:30:09;;;;;;;29.92;17.30;;;;;;;1.88;100.00;98952.25;5064924;28;20043;-69
2023/12/01 00:32:40;;;;;;;28.77;16.50;;;;;;;1.83;100.00;98934.13;5055445;28;20043;-67
2023/12/01 00:35:14;;;;;;;27.70;16.60;;;;;;;1.84;100.00;98921.94;5045052;28;20098;-67
2023/12/01 00:37:43;;;;;;;30.98;17.73;;;;;;;1.85;100.00;98962.81;5062044;28;20056;-68
2023/12/01 00:40:13;;;;;;;30.23;17.73;;;;;;;1.81;100.00;98955.97;5053646;28;20052;-67
2023/12/01 00:42:42;;;;;;;28.20;17.00;;;;;;;1.82;100.00;98962.91;5039307;28;20048;-67
2023/12/01 00:45:10;;;;;;;26.25;15.95;;;;;;;1.83;100.00;98982.88;5063982;28;20048;-67
2023/12/01 00:47:42;;;;;;;27.83;15.97;;;;;;;1.77;100.00;98965.66;5077051;28;20059;-68
2023/12/01 00:53:03;;;;;;;29.10;17.00;;;;;;;1.75;100.00;98962.25;5062296;28;21010;-68
2023/12/01 00:55:31;;;;;;;29.45;16.55;;;;;;;1.77;100.00;98971.72;5061879;28;20589;-67
2023/12/01 00:58:00;;;;;;;29.65;16.42;;;;;;;1.75;100.00;98968.31;5081400;28;20044;-67
2023/12/01 01:00:32;;;;;;;28.55;16.52;;;;;;;1.75;100.00;98975.28;5067205;28;20052;-67
2023/12/01 01:03:49;;;;;;;29.00;16.50;;;;;;;1.73;100.00;98975.34;5055162;28;20064;-68
2023/12/01 01:06:19;;;;;;;27.67;16.20;;;;;;;1.75;100.00;98973.53;5062443;28;20040;-68
2023/12/01 01:08:46;;;;;;;27.13;15.65;;;;;;;1.77;100.00;98970.88;5063108;28;20786;-67
2023/12/01 01:11:15;;;;;;;30.92;16.95;;;;;;;1.72;100.00;98967.59;5051951;28;20485;-67
2023/12/01 01:13:44;;;;;;;28.20;15.98;;;;;;;1.73;100.00;98967.50;5039269;28;20052;-69
2023/12/01 01:16:12;;;;;;;26.90;16.23;;;;;;;1.73;100.00;98972.72;5080238;28;20421;-68
2023/12/01 01:18:40;;;;;;;25.83;15.18;;;;;;;1.69;100.00;98963.31;5062175;28;20398;-67
2023/12/01 01:21:09;;;;;;;25.73;15.48;;;;;;;1.70;100.00;98964.19;5061450;28;20051;-67
2023/12/01 01:23:38;;;;;;;26.25;15.38;;;;;;;1.72;100.00;98965.84;5055934;28;20040;-68
2023/12/01 01:26:07;;;;;;;25.95;15.65;;;;;;;1.74;100.00;98968.38;5068972;28;20053;-68
2023/12/01 01:28:35;;;;;;;29.42;16.20;;;;;;;1.70;100.00;98967.66;5067557;28;20052;-69
2023/12/01 01:31:03;;;;;;;26.83;16.48;;;;;;;1.66;100.00;98962.56;5057046;28;20076;-68
2023/12/01 01:33:31;;;;;;;26.50;15.05;;;;;;;1.65;100.00;98943.44;5067876;28;20049;-68
2023/12/01 01:36:00;;;;;;;27.45;15.00;;;;;;;1.68;100.00;98947.72;5061597;28;20037;-67
2023/12/01 01:38:29;;;;;;;25.52;14.52;;;;;;;1.71;100.00;98969.34;5060782;28;20067;-67
2023/12/01 01:40:58;;;;;;;22.80;13.57;;;;;;;1.69;100.00;98976.38;5064594;28;20055;-68
2023/12/01 01:43:52;;;;;;;21.83;12.90;;;;;;;1.62;100.00;98982.69;5055246;28;20527;-68
2023/12/01 01:46:21;;;;;;;21.52;13.38;;;;;;;1.66;100.00;98989.53;5062275;28;20044;-68
2023/12/01 01:48:50;;;;;;;22.20;13.07;;;;;;;1.63;100.00;98989.63;5063339;28;20045;-68
2023/12/01 01:51:19;;;;;;;20.45;12.45;;;;;;;1.67;100.00;98985.16;5077760;28;20118;-68
2023/12/01 01:53:47;;;;;;;18.65;12.13;;;;;;;1.59;100.00;98976.72;5039032;28;20053;-67
2023/12/01 01:56:17;;;;;;;20.08;11.90;;;;;;;1.64;100.00;98991.31;5065155;28;20052;-68
2023/12/01 01:58:50;;;;;;;22.27;13.00;;;;;;;1.64;100.00;98975.66;5063733;28;20513;-68
2023/12/01 02:01:19;;;;;;;19.60;11.70;;;;;;;1.58;100.00;98973.25;5057530;28;20041;-68
2023/12/01 02:03:47;;;;;;;18.27;11.60;;;;;;;1.54;100.00;98963.00;5054560;28;20111;-69
2023/12/01 02:09:09;;;;;;;16.85;9.98;;;;;;;1.53;100.00;98969.09;5053418;28;20044;-67
2023/12/01 02:11:38;;;;;;;15.43;9.68;;;;;;;1.44;100.00;98966.78;5065652;28;20567;-69
2023/12/01 02:14:07;;;;;;;17.17;10.18;;;;;;;1.46;100.00;98967.59;5056330;28;20047;-68
2023/12/01 02:16:36;;;;;;;18.55;11.18;;;;;;;1.45;100.00;98969.34;5067306;28;20056;-69
2023/12/01 02:19:06;;;;;;;16.88;10.30;;;;;;;1.46;100.00;98984.09;5065507;28;20361;-68
2023/12/01 02:21:36;;;;;;;14.40;9.82;;;;;;;1.35;100.00;98970.56;5067127;28;20049;-68
2023/12/01 02:24:08;;;;;;;14.93;9.57;;;;;;;1.39;100.00;98990.44;5060811;28;20105;-68
2023/12/01 02:26:37;;;;;;;13.88;8.98;;;;;;;1.39;100.00;98986.06;5067416;28;20069;-69
2023/12/01 02:29:06;;;;;;;13.63;8.98;;;;;;;1.42;100.00;98979.06;5051865;28;20045;-68
2023/12/01 02:31:36;;;;;;;;;;;;;;;1.37;100.00;98997.44;5070932;28;20097;-67
2023/12/01 02:34:06;;;;;;;14.35;8.30;;;;;;;1.33;100.00;98995.84;5073230;28;20340;-68
2023/12/01 02:36:35;;;;;;;13.88;9.15;;;;;;;1.32;100.00;98994.13;5061361;28;20074;-68
2023/12/01 02:39:07;;;;;;;13.68;9.35;;;;;;;1.34;100.00;99008.81;5062297;28;20051;-69
2023/12/01 02:41:36;;;;;;;12.85;7.70;;;;;;;1.38;100.00;99006.97;5066452;28;20055;-68
2023/12/01 02:44:05;;;;;;;13.15;8.75;;;;;;;1.36;100.00;99009.63;5059101;28;20052;-69
2023/12/01 02:46:33;;;;;;;13.15;7.75;;;;;;;1.42;100.00;99007.75;5065912;28;20093;-68
2023/12/01 02:49:02;;;;;;;12.88;8.05;;;;;;;1.31;100.00;98984.59;5066199;28;20589;-67
2023/12/01 02:51:32;;;;;;;13.55;8.48;;;;;;;1.42;100.00;99005.13;5062279;28;20059;-68
2023/12/01 02:54:02;;;;;;;13.27;8.90;;;;;;;1.37;100.00;98998.31;5060790;28;20048;-67
2023/12/01 02:56:31;;;;;;;13.68;8.90;;;;;;;1.49;100.00;99004.88;5044452;28;20390;-67
2023/12/01 02:58:59;;;;;;;11.98;7.85;;;;;;;1.45;100.00;99000.66;5078453;28;20040;-68
2023/12/01 03:01:27;;;;;;;13.27;8.73;;;;;;;1.45;100.00;99005.88;5059909;28;20654;-67
2023/12/01 03:03:55;;;;;;;13.50;8.90;;;;;;;1.39;100.00;99016.50;5060144;28;20123;-67
2023/12/01 03:06:24;;;;;;;11.20;7.72;;;;;;;1.36;100.00;99012.25;5062870;28;20055;-69
2023/12/01 03:08:51;;;;;;;14.00;8.82;;;;;;;1.30;100.00;98995.91;5063684;28;20059;-67
2023/12/01 03:11:25;;;;;;;12.05;8.45;;;;;;;1.35;100.00;98997.50;5066299;28;20063;-68
2023/12/01 03:13:54;;;;;;;11.70;8.40;;;;;;;1.35;100.00;98999.25;5056432;28;20052;-66
2023/12/01 03:16:23;;;;;;;13.10;8.68;;;;;;;1.30;100.00;98995.91;5063773;28;20086;-68
2023/12/01 03:18:52;;;;;;;13.38;8.32;;;;;;;1.32;100.00;99004.56;5064667;28;20032;-68
2023/12/01 03:21:20;;;;;;;12.65;8.32;;;;;;;1.32;100.00;99002.81;5049821;28;20052;-68
2023/12/01 03:23:49;;;;;;;11.27;7.78;;;;;;;1.33;100.00;99008.88;5063540;28;20048;-68
2023/12/01 03:26:18;;;;;;;10.25;7.15;;;;;;;1.31;100.00;99010.66;5065928;28;20043;-69
2023/12/01 03:28:47;;;;;;;13.02;8.52;;;;;;;1.28;100.00;99008.16;5071368;28;20452;-67
2023/12/01 03:31:16;;;;;;;11.40;7.95;;;;;;;1.26;100.00;99008.19;5070590;28;20204;-67
2023/12/01 03:33:43;;;;;;;9.45;6.50;;;;;;;1.31;100.00;99010.66;5078645;28;21356;-68
2023/12/01 03:36:11;;;;;;;11.05;6.80;;;;;;;1.31;100.00;99002.84;5072955;28;20115;-68
2023/12/01 03:38:40;;;;;;;9.43;6.30;;;;;;;1.24;100.00;98997.00;5071243;28;20109;-67
2023/12/01 03:41:09;;;;;;;10.15;6.80;;;;;;;1.29;100.00;98996.81;5071191;28;20056;-68
2023/12/01 03:43:37;;;;;;;9.60;6.65;;;;;;;1.31;100.00;98990.66;5063949;28;20044;-67
2023/12/01 03:46:06;;;;;;;9.18;6.55;;;;;;;1.29;100.00;98984.63;5065990;28;20493;-68
2023/12/01 03:48:36;;;;;;;9.55;5.90;;;;;;;1.30;100.00;98985.50;5086063;28;20510;-67
2023/12/01 03:51:05;;;;;;;8.32;5.82;;;;;;;1.39;100.00;98983.47;5071764;28;20078;-68
2023/12/01 03:53:33;;;;;;;8.20;6.07;;;;;;;1.40;100.00;98982.56;5074457;28;20144;-68
2023/12/01 03:56:03;;;;;;;8.85;5.80;;;;;;;1.45;100.00;98987.59;5066258;28;20494;-68
2023/12/01 03:58:31;;;;;;;6.82;5.25;;;;;;;1.44;100.00;98988.50;5066814;28;20056;-69
2023/12/01 04:00:59;;;;;;;8.05;5.93;;;;;;;1.42;100.00;98995.53;5047498;28;20037;-68
2023/12/01 04:03:31;;;;;;;8.43;5.65;;;;;;;1.41;100.00;98999.06;5075452;28;20678;-67
2023/12/01 04:06:01;;;;;;;7.53;5.45;;;;;;;1.44;100.00;98996.31;5062391;28;20048;-68
2023/12/01 04:08:31;;;;;;;8.40;5.63;;;;;;;1.50;100.00;99003.97;5078646;28;20054;-69
2023/12/01 04:10:59;;;;;;;9.63;6.07;;;;;;;1.48;100.00;99004.91;5043775;28;22084;-68
2023/12/01 04:13:30;;;;;;;8.55;5.60;;;;;;;1.48;100.00;99005.78;5061504;28;20432;-69
2023/12/01 04:15:59;;;;;;;8.18;6.00;;;;;;;1.54;100.00;99005.59;5059823;28;20047;-68
2023/12/01 04:18:28;;;;;;;8.00;5.72;;;;;;;1.43;100.00;98994.63;5081299;28;20109;-68
2023/12/01 04:20:58;;;;;;;8.95;6.15;;;;;;;1.54;100.00;99026.47;5066286;28;20056;-68
2023/12/01 04:23:26;;;;;;;9.15;6.38;;;;;;;1.50;100.00;99017.00;5062968;28;20459;-67
2023/12/01 04:25:56;;;;;;;9.55;6.35;;;;;;;1.35;100.00;99004.47;5063680;28;20044;-68
2023/12/01 04:28:31;;;;;;;9.82;6.85;;;;;;;1.49;100.00;99027.50;5073040;28;20472;-68
2023/12/01 04:31:05;;;;;;;10.60;6.82;;;;;;;1.49;100.00;99028.34;5043582;28;20043;-68
2023/12/01 04:33:41;;;;;;;9.23;6.55;;;;;;;1.46;100.00;99011.94;5058146;28;20063;-67
2023/12/01 04:36:12;;;;;;;9.20;6.93;;;;;;;1.45;100.00;99008.47;5046137;28;20048;-69
2023/12/01 04:38:42;;;;;;;13.07;7.70;;;;;;;1.47;100.00;99004.06;5072711;28;20041;-68
2023/12/01 04:41:10;;;;;;;11.38;7.45;;;;;;;1.51;100.00;99005.69;5062460;28;20048;-68
2023/12/01 04:43:39;;;;;;;12.70;8.50;;;;;;;1.48;100.00;99000.56;5052692;28;20060;-68
2023/12/01 04:46:08;;;;;;;13.88;9.10;;;;;;;1.57;100.00;99005.50;5059252;28;20051;-68
2023/12/01 04:48:36;;;;;;;16.15;10.63;;;;;;;1.57;100.00;99007.25;5063560;28;20560;-67
2023/12/01 04:51:05;;;;;;;17.27;11.18;;;;;;;1.56;100.00;99013.38;5061926;28;20044;-68
2023/12/01 04:53:34;;;;;;;17.40;11.30;;;;;;;1.48;100.00;99013.59;5059789;28;20520;-68
2023/12/01 04:56:03;;;;;;;18.33;11.48;;;;;;;1.45;100.00;99013.69;5059198;28;20048;-67
2023/12/01 04:58:31;;;;;;;17.75;11.20;;;;;;;1.34;100.00;99016.66;5070060;28;20040;-68
2023/12/01 05:00:59;;;;;;;17.02;11.35;;;;;;;1.36;100.00;99021.81;5063020;28;20044;-67
2023/12/01 05:03:29;;;;;;;21.85;13.15;;;;;;;1.42;100.00;99013.78;5061639;28;20052;-67
2023/12/01 05:05:58;;;;;;;21.50;12.63;;;;;;;1.37;100.00;99027.00;5073475;28;20514;-67
2023/12/01 05:08:27;;;;;;;19.05;11.90;;;;;;;1.35;100.00;99025.31;5065645;28;20052;-68
2023/12/01 05:10:57;;;;;;;14.73;9.30;;;;;;;1.30;100.00;99029.81;5062425;28;20474;-68
2023/12/01 05:13:25;;;;;;;19.05;11.35;;;;;;;1.30;100.00;99025.47;5077243;28;20064;-67
2023/12/01 05:15:53;;;;;;;17.98;11.80;;;;;;;1.30;100.00;99022.84;5073477;28;20045;-67
2023/12/01 05:18:23;;;;;;;20.48;11.55;;;;;;;1.31;100.00;99023.72;5073174;28;20055;-68
2023/12/01 05:20:51;;;;;;;19.25;11.82;;;;;;;1.35;100.00;99030.53;5056904;28;20053;-67
2023/12/01 05:23:19;;;;;;;17.98;11.63;;;;;;;1.39;100.00;99042.59;5060277;28;20055;-67
2023/12/01 05:25:50;;;;;;;19.02;11.98;;;;;;;1.36;100.00;99042.69;5056224;28;20054;-69
2023/12/01 05:28:20;;;;;;;18.10;11.77;;;;;;;1.40;100.00;99039.09;5073647;28;20060;-68
2023/12/01 05:30:49;;;;;;;19.10;11.85;;;;;;;1.36;100.00;99042.69;5062430;28;20432;-68
2023/12/01 05:33:16;;;;;;;15.95;10.82;;;;;;;1.38;100.00;99053.94;5058294;28;20610;-68
2023/12/01 05:35:45;;;;;;;19.08;12.00;;;;;;;1.36;100.00;99058.34;5052232;28;20076;-68
2023/12/01 05:38:15;;;;;;;18.60;11.75;;;;;;;1.34;100.00;99063.59;5076544;28;20657;-69
2023/12/01 05:40:44;;;;;;;19.88;12.57;;;;;;;1.32;100.00;99065.38;5064157;28;20044;-68
2023/12/01 05:43:13;;;;;;;17.98;11.40;;;;;;;1.30;100.00;99066.34;5063766;28;20036;-68
2023/12/01 05:45:45;;;;;;;17.33;11.45;;;;;;;1.27;100.00;99067.28;5052855;28;20033;-68
2023/12/01 05:48:16;;;;;;;18.05;11.30;;;;;;;1.24;100.00;99062.19;5061215;28;20032;-68
2023/12/01 05:50:44;;;;;;;19.77;12.43;;;;;;;1.29;100.00;99072.44;5077847;28;20669;-68
2023/12/01 05:53:13;;;;;;;16.85;10.70;;;;;;;1.25;100.00;99066.50;5060904;28;20056;-67
2023/12/01 05:55:42;;;;;;;17.30;10.80;;;;;;;1.24;100.00;99071.75;5069001;28;20136;-67
2023/12/01 05:58:13;;;;;;;17.92;11.27;;;;;;;1.25;100.00;99071.72;5062461;28;20536;-68
2023/12/01 06:00:43;;;;;;;16.33;10.57;;;;;;;1.29;100.00;99078.50;5064481;28;20052;-67
2023/12/01 06:03:12;;;;;;;16.58;10.43;;;;;;;1.25;100.00;99079.53;5062637;28;20493;-68
2023/12/01 06:05:41;;;;;;;16.35;10.95;;;;;;;1.24;100.00;99074.38;5061040;28;20569;-68
2023/12/01 06:08:11;;;;;;;16.42;10.73;;;;;;;1.25;100.00;99070.84;5079109;28;20045;-68
2023/12/01 06:10:40;;;;;;;16.52;10.60;;;;;;;1.34;100.00;99091.44;5065406;28;20067;-68
2023/12/01 06:13:09;;;;;;;16.75;10.63;;;;;;;1.31;100.00;99076.72;5067233;28;20505;-67
2023/12/01 06:15:38;;;;;;;18.25;9.73;;;;;;;1.38;100.00;99091.28;5055031;28;20052;-68
2023/12/01 06:18:07;;;;;;;17.67;10.57;;;;;;;1.36;100.00;99092.25;5062401;28;20120;-67
2023/12/01 06:20:39;;;;;;;15.55;9.65;;;;;;;1.35;100.00;99098.34;5060892;28;20063;-68
2023/12/01 06:23:07;;;;;;;16.90;10.75;;;;;;;1.40;100.00;99102.53;5063857;28;20037;-67
2023/12/01 06:25:38;;;;;;;17.15;11.13;;;;;;;1.37;100.00;99113.06;5054871;28;20052;-67
2023/12/01 06:28:09;;;;;;;15.75;10.23;;;;;;;1.35;100.00;99120.06;5063147;28;20135;-67
2023/12/01 06:30:38;;;;;;;16.57;11.23;;;;;;;1.34;100.00;99126.19;5066152;28;20040;-68
2023/12/01 06:33:08;;;;;;;16.20;10.15;;;;;;;1.28;100.00;99121.13;5066031;28;20506;-67
2023/12/01 06:35:37;;;;;;;17.50;10.70;;;;;;;1.31;100.00;99125.41;5062253;28;20056;-68
2023/12/01 06:38:07;;;;;;;15.23;9.93;;;;;;;1.29;100.00;99124.59;5064030;28;20048;-68
2023/12/01 06:40:39;;;;;;;16.33;10.18;;;;;;;1.30;100.00;99115.88;5071494;28;20128;-67
2023/12/01 06:43:10;;;;;;;17.35;10.73;;;;;;;1.24;100.00;99105.66;5069281;28;20069;-68
2023/12/01 06:45:41;;;;;;;17.38;10.90;;;;;;;1.21;100.00;99105.75;5060223;28;20866;-67
2023/12/01 06:48:12;;;;;;;19.73;10.30;;;;;;;1.28;100.00;99113.31;5071743;28;20134;-70
2023/12/01 06:50:42;;;;;;;16.73;10.57;;;;;;;1.29;100.00;99124.59;5084572;28;20060;-68
2023/12/01 06:53:11;;;;;;;17.13;10.85;;;;;;;1.30;100.00;99121.09;5067586;28;20962;-68
2023/12/01 06:55:41;;;;;;;17.73;10.85;;;;;;;1.31;100.00;99128.03;5062144;28;20166;-67
2023/12/01 06:58:09;;;;;;;17.63;10.40;;;;;;;1.42;100.00;99133.75;5067625;28;20052;-66
2023/12/01 07:00:38;;;;;;;17.88;10.43;;;;;;;1.42;100.00;99147.66;5062433;28;20048;-66
2023/12/01 07:06:26;;;;;;;18.13;10.73;;;;;;;1.34;100.00;99149.66;5058587;28;20047;-67
2023/12/01 07:08:54;;;;;;;16.27;10.38;;;;;;;1.34;100.00;99152.25;5061447;28;20798;-68
2023/12/01 07:11:22;;;;;;;18.60;11.85;;;;;;;1.25;100.00;99149.09;5064579;28;20044;-68
2023/12/01 07:13:50;;;;;;;22.48;12.50;;;;;;;1.25;100.00;99156.91;5066893;28;22705;-66
2023/12/01 07:16:19;;;;;;;19.85;12.10;;;;;;;1.26;100.00;99156.00;5057498;28;20063;-67
2023/12/01 07:18:48;;;;;;;18.10;11.93;;;;;;;1.30;100.00;99149.78;5064177;28;20048;-68
2023/12/01 07:21:19;;;;;;;19.50;12.38;;;;;;;1.29;100.00;99148.94;5064273;28;20057;-66
2023/12/01 07:23:49;;;;;;;18.42;12.15;;;;;;;1.30;100.00;99157.59;5080632;28;20068;-66
2023/12/01 07:26:16;;;;;;;21.17;12.57;;;;;;;1.28;100.00;99169.84;5071849;28;20048;-66
2023/12/01 07:28:55;;;;;;;21.17;12.85;;;;;;;1.27;100.00;99157.69;5060651;28;20036;-66
2023/12/01 07:31:23;;;;;;;23.90;14.43;;;;;;;1.29;100.00;99164.56;5062290;28;20056;-66
2023/12/01 07:33:51;;;;;;;20.05;12.73;;;;;;;1.23;100.00;99156.09;5061998;28;20040;-66
2023/12/01 07:36:20;;;;;;;25.30;14.75;;;;;;;1.27;100.00;99155.94;5054263;28;20495;-66
2023/12/01 07:39:00;;;;;;;24.23;13.75;;;;;;;1.29;100.00;99151.53;5063250;28;20048;-67
2023/12/01 07:41:31;;;;;;;24.13;14.10;;;;;;;1.37;100.00;99159.16;5065488;28;20106;-67
2023/12/01 07:46:53;;;;;;;22.42;13.82;;;;;;;1.36;100.00;99168.72;5093105;27;20143;-67
2023/12/01 07:49:22;;;;;;;21.92;12.98;;;;;;;1.37;100.00;99177.41;5047921;28;20498;-67
2023/12/01 07:51:51;;;;;;;24.73;14.23;;;;;;;1.31;100.00;99168.00;5061991;28;20054;-66
2023/12/01 07:54:22;;;;;;;24.10;14.05;;;;;;;1.37;100.00;99164.38;5060758;28;20043;-67
2023/12/01 07:56:49;;;;;;;24.20;13.65;;;;;;;1.34;100.00;99160.09;5057205;28;20532;-67
2023/12/01 07:59:17;;;;;;;21.45;13.25;;;;;;;1.33;100.00;99160.13;5061726;28;20064;-66
2023/12/01 08:01:45;;;;;;;24.98;14.60;;;;;;;1.33;100.00;99165.34;5063445;28;20063;-66
2023/12/01 08:04:15;;;;;;;23.48;13.55;;;;;;;1.34;100.00;99161.84;5064951;28;20043;-66
2023/12/01 08:06:44;;;;;;;27.02;13.98;;;;;;;1.39;100.00;99162.56;5060332;28;20055;-67
2023/12/01 08:09:16;;;;;;;21.70;13.73;;;;;;;1.48;100.00;99170.13;5060689;28;20132;-67
2023/12/01 08:11:46;;;;;;;22.38;13.23;;;;;;;1.52;100.00;99170.88;5064667;28;20045;-66
2023/12/01 08:14:14;;;;;;;22.35;14.05;;;;;;;1.37;100.00;99144.34;5061963;28;20672;-67
2023/12/01 08:16:42;;;;;;;21.45;13.27;;;;;;;1.53;100.00;99176.06;5055236;28;20127;-67
2023/12/01 08:19:10;;;;;;;21.52;12.80;;;;;;;1.57;100.00;99182.91;5054529;28;20052;-66
2023/12/01 08:21:39;;;;;;;21.92;13.93;;;;;;;1.54;100.00;99179.53;5066909;28;20052;-66
2023/12/01 08:24:07;;;;;;;20.60;12.20;;;;;;;1.48;100.00;99177.94;5067440;28;20084;-66
2023/12/01 08:26:37;;;;;;;20.20;13.15;;;;;;;1.45;100.00;99183.25;5062213;28;20473;-66
2023/12/01 08:29:08;;;;;;;23.77;14.45;;;;;;;1.46;100.00;99195.38;5063939;28;20040;-67
2023/12/01 08:31:53;;;;;;;21.90;13.55;;;;;;;1.51;100.00;99197.88;5094420;27;20754;-67
2023/12/01 08:34:21;;;;;;;21.77;13.48;;;;;;;1.48;100.00;99195.34;5112712;27;20048;-67
2023/12/01 08:36:51;;;;;;;21.80;12.85;;;;;;;1.51;100.00;99203.94;5090491;28;20054;-66
2023/12/01 08:39:21;;;;;;;22.55;14.07;;;;;;;1.51;100.00;99196.13;5094961;28;20059;-67
2023/12/01 08:41:53;;;;;;;23.55;14.30;;;;;;;1.51;100.00;99196.13;5094506;28;20042;-67
2023/12/01 08:44:21;;;;;;;22.17;13.85;;;;;;;1.51;100.00;99203.94;5097761;28;20044;-67
2023/12/01 08:46:49;;;;;;;23.65;14.35;;;;;;;1.49;100.00;99190.09;5093522;28;20103;-67
2023/12/01 08:49:21;;;;;;;21.45;13.15;;;;;;;1.56;100.00;99201.22;5096010;28;20038;-68
2023/12/01 08:51:55;;;;;;;21.58;14.00;;;;;;;1.54;100.00;99193.44;5091125;28;20055;-67
2023/12/01 08:54:25;;;;;;;22.05;13.88;;;;;;;1.50;100.00;99191.78;5088607;28;20051;-66
2023/12/01 08:56:56;;;;;;;;;;;;;;;1.55;100.00;99191.66;5087925;28;20132;-66
2023/12/01 08:59:27;;;;;;;22.10;13.18;;;;;;;1.57;100.00;99188.13;5096572;28;19942;-67
2023/12/01 09:01:56;;;;;;;19.37;13.17;;;;;;;1.63;100.00;99182.69;5087757;28;20040;-67
2023/12/01 09:04:53;;;;;;;21.63;13.50;;;;;;;1.59;100.00;99198.47;5075347;28;20512;-67
2023/12/01 09:07:21;;;;;;;20.45;12.88;;;;;;;1.58;100.00;99197.63;5084111;28;20171;-66
2023/12/01 09:09:55;;;;;;;20.90;13.35;;;;;;;1.60;100.00;99211.47;5104461;27;20040;-66
2023/12/01 09:12:24;;;;;;;18.48;11.82;;;;;;;1.73;100.00;99209.41;5093174;28;20055;-67
2023/12/01 09:14:52;;;;;;;20.08;12.18;;;;;;;1.70;100.00;99210.34;5084986;28;20043;-68
2023/12/01 09:17:22;;;;;;;19.73;12.43;;;;;;;1.72;100.00;99234.63;5084571;28;20198;-66
2023/12/01 09:19:51;;;;;;;18.40;12.07;;;;;;;1.74;100.00;99226.72;5092035;28;20271;-66
2023/12/01 09:25:40;;;;;;;19.67;11.32;;;;;;;1.72;100.00;99223.34;5086966;28;20235;-66
2023/12/01 09:28:37;;;;;;;17.47;11.40;;;;;;;1.65;100.00;99225.25;5081972;28;20736;-67
2023/12/01 09:31:33;;;;;;;16.45;11.15;;;;;;;1.63;100.00;99227.06;5080471;28;20055;-66
2023/12/01 09:34:02;;;;;;;16.95;11.27;;;;;;;1.65;100.00;99227.00;5096078;28;20048;-67
2023/12/01 09:36:32;;;;;;;19.27;11.80;;;;;;;1.61;100.00;99226.25;5087341;28;20044;-66
2023/12/01 09:39:03;;;;;;;16.77;10.65;;;;;;;1.63;100.00;99224.44;5093881;28;20072;-65
2023/12/01 09:41:33;;;;;;;15.50;9.85;;;;;;;1.70;100.00;99223.38;5080210;28;20036;-66
2023/12/01 09:44:02;;;;;;;12.70;9.50;;;;;;;1.64;100.00;99210.50;5064371;28;20311;-66
2023/12/01 09:46:40;;;;;;;13.27;9.05;;;;;;;1.73;100.00;99223.25;5078677;28;20127;-67
2023/12/01 09:49:08;;;;;;;15.80;9.05;;;;;;;1.67;100.00;99215.63;5076746;28;20040;-66
2023/12/01 09:51:38;;;;;;;15.05;10.10;;;;;;;1.68;100.00;99225.19;5076354;28;20441;-66
2023/12/01 09:54:06;;;;;;;12.82;9.15;;;;;;;1.71;100.00;99219.88;5063167;28;20040;-65
2023/12/01 09:56:34;;;;;;;12.98;9.20;;;;;;;1.81;100.00;99220.44;5087396;28;20049;-66
2023/12/01 09:59:05;;;;;;;11.02;7.68;;;;;;;1.85;100.00;99210.78;5078441;28;20119;-66
2023/12/01 10:01:34;;;;;;;9.27;7.70;;;;;;;1.89;100.00;99220.22;5063332;28;20043;-66
2023/12/01 10:04:02;;;;;;;9.88;7.20;;;;;;;1.95;100.00;99225.25;5080937;28;20043;-67
2023/12/01 10:06:32;;;;;;;9.10;6.75;;;;;;;1.86;100.00;99204.66;5055915;28;20053;-65
2023/12/01 10:09:02;;;;;;;8.75;6.80;;;;;;;1.87;100.00;99207.22;5084858;28;20105;-66
2023/12/01 10:11:31;;;;;;;10.32;7.35;;;;;;;1.98;100.00;99212.09;5079128;28;20420;-66
2023/12/01 10:14:00;;;;;;;10.05;7.28;;;;;;;2.04;100.00;99222.34;5077423;28;20067;-67
2023/12/01 10:16:36;;;;;;;9.80;6.40;;;;;;;2.07;100.00;99238.75;5074142;28;20497;-67
2023/12/01 10:19:05;;;;;;;8.57;6.85;;;;;;;2.07;100.00;99236.16;5080317;28;20131;-67
2023/12/01 10:21:45;;;;;;;8.30;6.40;;;;;;;2.06;100.00;99238.81;5075095;28;20586;-67
2023/12/01 10:24:20;;;;;;;9.18;7.00;;;;;;;1.94;100.00;99232.22;5078632;28;20045;-66
2023/12/01 10:26:50;;;;;;;9.23;6.75;;;;;;;1.90;100.00;99227.13;5072314;28;20094;-67
2023/12/01 10:29:31;;;;;;;7.75;6.05;;;;;;;1.96;100.00;99230.41;5079586;28;20111;-67
2023/12/01 10:32:03;;;;;;;13.48;6.43;;;;;;;1.95;100.00;99225.25;5083861;28;20056;-66
2023/12/01 10:34:33;;;;;;;9.50;6.38;;;;;;;1.90;100.00;99233.19;5079325;28;20509;-67
2023/12/01 10:37:04;;;;;;;8.50;5.85;;;;;;;1.96;100.00;99222.59;5077714;28;20048;-67
2023/12/01 10:39:36;;;;;;;7.10;5.70;;;;;;;1.95;100.00;99215.66;5080888;28;20121;-68
2023/12/01 10:42:06;;;;;;;9.60;7.00;;;;;;;1.93;100.00;99204.41;5081053;28;20044;-67
2023/12/01 10:44:36;;;;;;;8.33;6.57;;;;;;;1.98;100.00;99209.47;5080770;28;20044;-66
2023/12/01 10:47:06;;;;;;;10.25;7.05;;;;;;;2.01;100.00;99212.00;5075425;28;20060;-67
2023/12/01 10:49:36;;;;;;;9.10;6.68;;;;;;;2.09;100.00;99202.16;5084312;28;20037;-67
2023/12/01 10:52:13;;;;;;;7.70;6.50;;;;;;;2.14;100.00;99189.81;5080822;28;20253;-66
2023/12/01 10:54:43;;;;;;;7.10;6.10;;;;;;;2.18;100.00;99193.19;5084928;28;20050;-66
2023/12/01 10:57:18;;;;;;;10.80;7.32;;;;;;;2.17;100.00;99197.56;5068237;28;20044;-66
2023/12/01 10:59:52;;;;;;;9.65;6.80;;;;;;;2.21;100.00;99193.94;5081788;28;20063;-66
2023/12/01 11:02:26;;;;;;;9.95;6.78;;;;;;;2.16;100.00;99195.84;5076074;28;20041;-67
2023/12/01 11:04:56;;;;;;;8.75;6.65;;;;;;;2.14;100.00;99189.81;5078521;28;20523;-66
2023/12/01 11:07:56;;;;;;;9.30;6.43;;;;;;;2.12;100.00;99207.28;5073998;28;20051;-65
2023/12/01 11:10:32;;;;;;;7.72;6.10;;;;;;;2.15;100.00;99220.25;5075420;28;20039;-66
2023/12/01 11:13:18;;;;;;;10.23;6.60;;;;;;;2.13;100.00;99215.97;5075767;28;20143;-66
2023/12/01 11:15:49;;;;;;;9.48;6.93;;;;;;;2.07;100.00;99201.34;5075843;28;20090;-66
2023/12/01 11:18:18;;;;;;;12.45;7.38;;;;;;;2.11;100.00;99195.13;5074435;28;20197;-67
2023/12/01 11:20:48;;;;;;;11.52;7.53;;;;;;;2.15;100.00;99196.75;5073144;28;20055;-67
2023/12/01 11:23:24;;;;;;;10.73;7.43;;;;;;;2.23;100.00;99205.19;5081781;28;20044;-67
2023/12/01 11:25:57;;;;;;;11.23;7.65;;;;;;;2.31;100.00;99197.97;5072388;28;20109;-66
2023/12/01 11:28:29;;;;;;;10.80;7.65;;;;;;;2.34;100.00;99197.88;5069924;28;20433;-67
2023/12/01 11:31:07;;;;;;;12.88;8.32;;;;;;;2.37;100.00;99192.53;5093032;28;20124;-68
2023/12/01 11:33:41;;;;;;;11.10;8.10;;;;;;;2.34;100.00;99194.41;5092476;28;20538;-68
2023/12/01 11:36:24;;;;;;;12.23;8.02;;;;;;;2.28;100.00;99187.63;5081050;28;20040;-67
2023/12/01 11:39:16;;;;;;;12.70;8.05;;;;;;;2.27;100.00;99188.50;5071876;28;20044;-67
2023/12/01 11:41:48;;;;;;;12.05;7.90;;;;;;;2.25;100.00;99168.56;5074444;28;20056;-66
2023/12/01 11:44:23;;;;;;;12.60;8.32;;;;;;;2.33;100.00;99180.50;5078165;28;20835;-67
2023/12/01 11:46:59;;;;;;;13.98;8.77;;;;;;;2.44;100.00;99164.44;5073466;28;20497;-65
2023/12/01 11:49:38;;;;;;;12.65;8.82;;;;;;;2.42;100.00;99161.88;5083904;28;20677;-66
2023/12/01 11:52:12;;;;;;;13.27;8.95;;;;;;;2.46;100.00;99173.09;5083224;28;20425;-65